Time;durP1;ratioP1;P1;durP2;ratioP2;P2;SDS_P1;SDS_P2;PMS_P1;PMS_P2;Temp;Humidity;BMP_temperature;BMP_pressure;BME280_temperature;BME280_humidity;BME280_pressure;Samples;Min_cycle;Max_cycle;Signal;HPM_P1;HPM_P2
2022/07/31 00:00:43;;;;;;;5.55;2.55;;;19.00;99.90;;;;;;5093112;28;20052;-88
2022/07/31 00:03:09;;;;;;;4.53;2.70;;;18.90;99.90;;;;;;5092706;28;20135;-83
2022/07/31 00:05:34;;;;;;;10.48;3.00;;;18.90;99.90;;;;;;5092941;28;20520;-84
2022/07/31 00:08:00;;;;;;;8.80;3.33;;;18.80;99.90;;;;;;5093638;28;20048;-84
2022/07/31 00:10:26;;;;;;;8.82;4.40;;;18.70;99.90;;;;;;5096907;28;20082;-82
2022/07/31 00:12:52;;;;;;;6.18;3.90;;;18.70;99.90;;;;;;5096754;28;20055;-84
2022/07/31 00:15:18;;;;;;;7.00;4.25;;;18.70;99.90;;;;;;5097082;28;20044;-85
2022/07/31 00:17:44;;;;;;;10.43;5.70;;;18.70;99.90;;;;;;5097248;28;20130;-84
2022/07/31 00:20:12;;;;;;;12.13;5.35;;;18.70;99.90;;;;;;5096747;28;20070;-85
2022/07/31 00:22:39;;;;;;;6.68;4.20;;;18.60;99.90;;;;;;5096905;28;20439;-87
2022/07/31 00:25:05;;;;;;;11.10;4.93;;;18.60;99.90;;;;;;5079205;28;20105;-84
2022/07/31 00:27:31;;;;;;;10.85;4.68;;;18.60;99.90;;;;;;5096600;28;20051;-85
2022/07/31 00:29:57;;;;;;;8.75;4.30;;;18.70;99.90;;;;;;5096781;28;20110;-82
2022/07/31 00:32:23;;;;;;;6.38;4.78;;;18.70;99.90;;;;;;5079023;28;20485;-83
2022/07/31 00:34:51;;;;;;;5.75;4.15;;;18.60;99.90;;;;;;5096614;28;20048;-83
2022/07/31 00:37:17;;;;;;;7.40;4.70;;;18.60;99.90;;;;;;5078679;28;20557;-82
2022/07/31 00:39:43;;;;;;;5.88;4.28;;;18.60;99.90;;;;;;5096480;28;20079;-83
2022/07/31 00:42:21;;;;;;;7.45;4.50;;;18.60;99.90;;;;;;5096429;28;20044;-86
2022/07/31 00:44:47;;;;;;;8.98;4.85;;;18.60;99.90;;;;;;5096627;28;20048;-83
2022/07/31 00:47:13;;;;;;;5.90;4.72;;;18.60;99.90;;;;;;5096631;28;20101;-83
2022/07/31 00:49:39;;;;;;;6.40;4.60;;;18.50;99.90;;;;;;5078448;28;20052;-83
2022/07/31 00:52:05;;;;;;;5.50;4.50;;;18.50;99.90;;;;;;5096243;28;20055;-90
2022/07/31 00:54:31;;;;;;;7.05;4.60;;;18.60;99.90;;;;;;5096271;28;20151;-83
2022/07/31 00:56:56;;;;;;;7.22;4.28;;;18.50;99.90;;;;;;5096079;28;20048;-83
2022/07/31 00:59:22;;;;;;;9.75;4.53;;;18.50;99.90;;;;;;5095933;28;20048;-82
2022/07/31 01:01:48;;;;;;;8.27;4.53;;;18.50;99.90;;;;;;5096235;28;20048;-82
2022/07/31 01:04:15;;;;;;;6.93;5.03;;;18.50;99.90;;;;;;5061160;28;20048;-83
2022/07/31 01:06:41;;;;;;;6.82;4.70;;;18.50;99.90;;;;;;5077455;28;20177;-83
2022/07/31 01:09:06;;;;;;;8.13;4.75;;;18.50;99.90;;;;;;5096320;28;20123;-82
2022/07/31 01:11:47;;;;;;;7.43;4.20;;;18.50;99.90;;;;;;5077985;28;20473;-83
2022/07/31 01:14:14;;;;;;;7.22;4.40;;;18.50;99.90;;;;;;5096027;28;20087;-84
2022/07/31 01:16:44;;;;;;;11.98;4.15;;;18.40;99.90;;;;;;5095785;28;20047;-83
2022/07/31 01:19:32;;;;;;;5.43;4.45;;;18.40;99.90;;;;;;5095529;28;20131;-84
2022/07/31 01:22:15;;;;;;;7.75;4.68;;;18.40;99.90;;;;;;5033104;28;20054;-83
2022/07/31 01:25:04;;;;;;;8.95;4.43;;;18.40;99.90;;;;;;5033339;28;20050;-82
2022/07/31 01:27:47;;;;;;;6.40;4.03;;;18.40;99.90;;;;;;5033207;28;20041;-83
2022/07/31 01:30:13;;;;;;;5.50;4.22;;;18.30;99.90;;;;;;5033178;28;20132;-83
2022/07/31 01:32:47;;;;;;;7.95;4.30;;;18.40;99.90;;;;;;5033192;28;20558;-82
2022/07/31 01:35:26;;;;;;;9.50;4.18;;;18.30;99.90;;;;;;5033147;28;20132;-83
2022/07/31 01:38:25;;;;;;;8.13;3.83;;;18.40;99.90;;;;;;5032845;28;20099;-82
2022/07/31 01:41:01;;;;;;;12.77;4.15;;;18.40;99.90;;;;;;4954894;29;20078;-82
2022/07/31 01:43:41;;;;;;;6.28;3.88;;;18.40;99.90;;;;;;4939013;29;20063;-83
2022/07/31 01:46:11;;;;;;;6.22;3.60;;;18.40;99.90;;;;;;4954859;29;20083;-82
2022/07/31 01:48:39;;;;;;;6.53;4.13;;;18.40;99.90;;;;;;4954849;29;20138;-84
2022/07/31 01:51:07;;;;;;;5.32;4.30;;;18.40;99.90;;;;;;4939031;28;20063;-83
2022/07/31 01:53:35;;;;;;;8.15;4.20;;;18.40;99.90;;;;;;4954648;29;20156;-82
2022/07/31 01:56:02;;;;;;;7.07;3.72;;;18.40;99.90;;;;;;4938844;29;20054;-83
2022/07/31 01:58:31;;;;;;;5.03;3.65;;;18.40;99.90;;;;;;4964975;28;20125;-83
2022/07/31 02:00:59;;;;;;;8.82;4.15;;;18.40;99.90;;;;;;5012668;28;20111;-82
2022/07/31 02:03:26;;;;;;;6.40;4.05;;;18.40;99.90;;;;;;5012670;28;20046;-83
2022/07/31 02:05:53;;;;;;;10.25;4.22;;;18.40;99.90;;;;;;5012681;28;20060;-83
2022/07/31 02:08:21;;;;;;;8.70;3.95;;;18.40;99.90;;;;;;5012478;28;20053;-82
2022/07/31 02:10:47;;;;;;;5.72;3.88;;;18.30;99.90;;;;;;4996100;28;20478;-83
2022/07/31 02:13:14;;;;;;;9.57;3.80;;;18.40;99.90;;;;;;5012543;28;20096;-84
2022/07/31 02:15:41;;;;;;;5.22;3.60;;;18.40;99.90;;;;;;4996562;28;20061;-83
2022/07/31 02:18:09;;;;;;;8.95;3.80;;;18.30;99.90;;;;;;5046153;28;20104;-83
2022/07/31 02:20:38;;;;;;;5.32;3.47;;;18.30;99.90;;;;;;5076693;28;20400;-82
2022/07/31 02:23:03;;;;;;;5.80;3.60;;;18.30;99.90;;;;;;5076321;28;20056;-83
2022/07/31 02:25:31;;;;;;;5.15;3.70;;;18.30;99.90;;;;;;5094587;28;20048;-83
2022/07/31 02:28:01;;;;;;;6.43;4.05;;;18.30;99.90;;;;;;5094559;28;20052;-82
2022/07/31 02:30:30;;;;;;;5.80;3.40;;;18.30;99.90;;;;;;5094572;28;20094;-82
2022/07/31 02:32:56;;;;;;;4.68;3.60;;;18.30;99.90;;;;;;5059881;28;20044;-82
2022/07/31 02:35:23;;;;;;;6.65;3.90;;;18.30;99.90;;;;;;5076219;28;20044;-82
2022/07/31 02:37:52;;;;;;;5.10;4.00;;;18.20;99.90;;;;;;5059495;28;20143;-82
2022/07/31 02:40:18;;;;;;;7.70;3.85;;;18.20;99.90;;;;;;5076195;28;20133;-83
2022/07/31 02:42:45;;;;;;;5.90;3.67;;;18.30;99.90;;;;;;5059521;28;20556;-82
2022/07/31 02:45:12;;;;;;;9.40;4.40;;;18.20;99.90;;;;;;5094206;28;20040;-82
2022/07/31 02:47:38;;;;;;;5.70;3.70;;;18.20;99.90;;;;;;5094164;28;20055;-82
2022/07/31 02:50:05;;;;;;;3.97;3.58;;;18.20;99.90;;;;;;5093910;28;20044;-90
2022/07/31 02:52:32;;;;;;;7.28;3.63;;;18.10;99.90;;;;;;5093815;28;20044;-82
2022/07/31 02:54:58;;;;;;;6.78;4.15;;;18.00;99.90;;;;;;5093779;28;20469;-82
2022/07/31 02:57:24;;;;;;;5.47;3.63;;;18.10;99.90;;;;;;5094193;28;20388;-82
2022/07/31 02:59:49;;;;;;;5.80;3.78;;;18.20;99.90;;;;;;5094062;28;20047;-82
2022/07/31 03:02:15;;;;;;;7.47;4.10;;;18.10;99.90;;;;;;5093772;28;20134;-83
2022/07/31 03:04:41;;;;;;;5.20;4.30;;;18.10;99.90;;;;;;5093653;28;20044;-82
2022/07/31 03:07:06;;;;;;;6.35;4.15;;;18.10;99.90;;;;;;5075533;28;20111;-85
2022/07/31 03:09:32;;;;;;;6.10;4.10;;;18.10;99.90;;;;;;5094049;28;20098;-82
2022/07/31 03:11:58;;;;;;;6.55;4.05;;;18.00;99.90;;;;;;5075777;28;20126;-82
2022/07/31 03:14:25;;;;;;;7.32;4.30;;;18.00;99.90;;;;;;5093706;28;20122;-82
2022/07/31 03:16:51;;;;;;;7.95;3.90;;;18.00;99.90;;;;;;5075727;28;20075;-82
2022/07/31 03:19:19;;;;;;;6.88;4.20;;;18.10;99.90;;;;;;5093558;28;20085;-83
2022/07/31 03:21:46;;;;;;;8.50;4.38;;;18.00;99.90;;;;;;5075630;28;20135;-82
2022/07/31 03:24:12;;;;;;;13.18;4.32;;;18.00;99.90;;;;;;5093270;28;20079;-82
2022/07/31 03:26:38;;;;;;;6.85;4.22;;;18.00;99.90;;;;;;5093784;28;20048;-82
2022/07/31 03:29:04;;;;;;;5.75;4.20;;;18.00;99.90;;;;;;5075745;28;20184;-82
2022/07/31 03:31:29;;;;;;;7.40;4.13;;;17.90;99.90;;;;;;5093292;28;20140;-84
2022/07/31 03:33:55;;;;;;;10.00;4.38;;;17.90;99.90;;;;;;5075396;28;20094;-83
2022/07/31 03:36:21;;;;;;;7.60;4.90;;;17.90;99.90;;;;;;5075549;28;20048;-82
2022/07/31 03:38:47;;;;;;;6.70;4.40;;;17.80;99.90;;;;;;5075235;28;20089;-83
2022/07/31 03:41:13;;;;;;;6.97;4.78;;;17.80;99.90;;;;;;5093230;28;20051;-83
2022/07/31 03:43:41;;;;;;;7.00;4.50;;;17.90;99.90;;;;;;5093141;28;20043;-82
2022/07/31 03:46:07;;;;;;;7.32;4.90;;;17.80;99.90;;;;;;5092988;28;20106;-82
2022/07/31 03:48:33;;;;;;;7.72;5.00;;;17.70;99.90;;;;;;5074520;28;20044;-81
2022/07/31 03:50:59;;;;;;;11.15;5.22;;;17.70;99.90;;;;;;5075228;28;20060;-83
2022/07/31 03:53:25;;;;;;;8.32;5.00;;;17.60;99.90;;;;;;5074505;28;20486;-82
2022/07/31 03:55:52;;;;;;;9.68;5.03;;;17.60;99.90;;;;;;5093178;28;20052;-83
2022/07/31 03:58:18;;;;;;;7.65;4.95;;;17.60;99.90;;;;;;5093067;28;20051;-82
2022/07/31 04:00:44;;;;;;;7.72;5.07;;;17.60;99.90;;;;;;5093585;28;20055;-82
2022/07/31 04:03:11;;;;;;;7.28;5.85;;;17.60;99.90;;;;;;5092497;28;20047;-82
2022/07/31 04:05:38;;;;;;;6.90;4.80;;;17.60;99.90;;;;;;5092253;28;20052;-83
2022/07/31 04:08:08;;;;;;;6.70;5.13;;;17.70;99.90;;;;;;5074914;28;20044;-86
2022/07/31 04:10:35;;;;;;;8.10;5.13;;;17.60;99.90;;;;;;5092900;28;20501;-82
2022/07/31 04:13:05;;;;;;;9.07;4.63;;;17.70;99.90;;;;;;5075194;28;20051;-82
2022/07/31 04:15:31;;;;;;;7.25;5.13;;;17.70;99.90;;;;;;5092774;28;20392;-82
2022/07/31 04:17:57;;;;;;;9.60;5.22;;;17.60;99.90;;;;;;5092835;28;20044;-83
2022/07/31 04:20:23;;;;;;;9.00;5.07;;;17.70;99.90;;;;;;5074901;28;20048;-81
2022/07/31 04:22:48;;;;;;;8.05;5.45;;;17.70;99.90;;;;;;5074812;28;20504;-83
2022/07/31 04:25:15;;;;;;;6.05;5.47;;;17.60;99.90;;;;;;5074890;28;20055;-82
2022/07/31 04:27:41;;;;;;;6.88;5.53;;;17.60;99.90;;;;;;5092681;28;20044;-84
2022/07/31 04:30:07;;;;;;;5.63;4.68;;;17.60;99.90;;;;;;5092634;28;20181;-83
2022/07/31 04:32:34;;;;;;;6.97;4.32;;;17.70;99.90;;;;;;5057952;28;20048;-82
2022/07/31 04:35:01;;;;;;;7.70;5.13;;;17.70;99.90;;;;;;5092267;28;20485;-82
2022/07/31 04:37:27;;;;;;;6.68;4.88;;;17.70;99.90;;;;;;5064300;28;20052;-83
2022/07/31 04:39:53;;;;;;;8.00;5.25;;;17.70;99.90;;;;;;5073602;28;20063;-82
2022/07/31 04:42:18;;;;;;;5.40;4.80;;;17.60;99.90;;;;;;5092598;28;20044;-83
2022/07/31 04:44:44;;;;;;;7.38;4.88;;;17.70;99.90;;;;;;5092621;28;20055;-83
2022/07/31 04:47:10;;;;;;;9.77;4.85;;;17.70;99.90;;;;;;5092547;28;20040;-83
2022/07/31 04:49:35;;;;;;;7.10;4.70;;;17.80;99.90;;;;;;5092586;28;20102;-90
2022/07/31 04:52:01;;;;;;;8.38;5.00;;;17.80;99.90;;;;;;5092481;28;20051;-83
2022/07/31 04:54:27;;;;;;;8.10;4.82;;;17.80;99.90;;;;;;5074580;28;20154;-83
2022/07/31 04:56:52;;;;;;;7.32;4.63;;;17.80;99.90;;;;;;5096194;28;20424;-83
2022/07/31 04:59:20;;;;;;;7.78;4.97;;;17.90;99.90;;;;;;5096389;28;20405;-83
2022/07/31 05:02:05;;;;;;;10.13;4.90;;;18.00;99.90;;;;;;5096111;28;20052;-83
2022/07/31 05:04:31;;;;;;;9.05;4.82;;;18.10;99.90;;;;;;5096103;28;20584;-83
2022/07/31 05:06:56;;;;;;;6.80;4.32;;;18.10;99.90;;;;;;5095870;28;20067;-83
2022/07/31 05:09:23;;;;;;;7.88;5.30;;;18.10;99.90;;;;;;5078156;28;20048;-84
2022/07/31 05:11:50;;;;;;;6.90;5.30;;;18.20;99.90;;;;;;5096091;28;20047;-83
2022/07/31 05:14:18;;;;;;;9.18;5.22;;;18.20;99.90;;;;;;5095988;28;20040;-83
2022/07/31 05:16:44;;;;;;;8.73;5.25;;;18.10;99.90;;;;;;5095647;28;20043;-84
2022/07/31 05:19:10;;;;;;;8.55;5.10;;;18.20;99.90;;;;;;5095972;28;20047;-83
2022/07/31 05:21:36;;;;;;;8.18;5.43;;;18.20;99.90;;;;;;5095662;28;20083;-83
2022/07/31 05:24:02;;;;;;;11.30;5.05;;;18.30;99.90;;;;;;5077889;28;20145;-83
2022/07/31 05:26:29;;;;;;;10.48;5.45;;;18.30;99.90;;;;;;5095954;28;20047;-83
2022/07/31 05:28:56;;;;;;;8.43;5.10;;;18.30;99.90;;;;;;5077906;28;20504;-83
2022/07/31 05:31:22;;;;;;;11.40;5.53;;;18.30;99.90;;;;;;5095555;28;20063;-88
2022/07/31 05:33:50;;;;;;;6.10;5.03;;;18.50;99.90;;;;;;5095309;28;20381;-84
2022/07/31 05:36:17;;;;;;;9.45;5.97;;;18.50;99.90;;;;;;5095412;28;20044;-83
2022/07/31 05:38:42;;;;;;;7.43;5.25;;;18.50;99.90;;;;;;5095435;28;20462;-83
2022/07/31 05:41:09;;;;;;;7.82;5.68;;;18.50;99.90;;;;;;5095423;28;20036;-87
2022/07/31 05:43:35;;;;;;;11.52;5.93;;;18.60;99.90;;;;;;5095516;28;20131;-84
2022/07/31 05:46:02;;;;;;;10.38;5.45;;;18.60;99.90;;;;;;5095256;28;20138;-86
2022/07/31 05:48:27;;;;;;;8.10;5.50;;;18.70;99.90;;;;;;5095365;28;20052;-83
2022/07/31 05:50:53;;;;;;;9.73;5.63;;;18.70;99.90;;;;;;5095114;28;20059;-83
2022/07/31 05:53:19;;;;;;;6.88;5.55;;;18.70;99.90;;;;;;5077378;28;20490;-83
2022/07/31 05:55:47;;;;;;;7.82;5.82;;;18.70;99.90;;;;;;5095161;28;20083;-84
2022/07/31 05:58:14;;;;;;;8.73;5.57;;;18.70;99.90;;;;;;5095169;28;20126;-83
2022/07/31 06:00:40;;;;;;;12.38;5.88;;;18.80;99.90;;;;;;5077557;28;20062;-84
2022/07/31 06:03:06;;;;;;;8.13;5.47;;;18.90;99.90;;;;;;5060795;28;20056;-83
2022/07/31 06:05:32;;;;;;;7.25;5.28;;;18.90;99.90;;;;;;5095171;28;20461;-83
2022/07/31 06:08:00;;;;;;;6.30;5.57;;;19.00;99.90;;;;;;5077083;28;20087;-83
2022/07/31 06:10:27;;;;;;;7.38;5.35;;;19.00;99.90;;;;;;5095452;28;20113;-83
2022/07/31 06:12:53;;;;;;;8.68;5.53;;;19.10;99.90;;;;;;5095180;28;20047;-83
2022/07/31 06:15:19;;;;;;;7.78;5.25;;;19.10;99.90;;;;;;5095486;28;20044;-84
2022/07/31 06:17:46;;;;;;;8.57;5.35;;;19.20;99.90;;;;;;5043846;28;20055;-84
2022/07/31 06:20:12;;;;;;;9.50;5.07;;;19.20;99.90;;;;;;5060610;28;20093;-84
2022/07/31 06:22:40;;;;;;;7.72;5.43;;;19.30;99.90;;;;;;5095252;28;20048;-83
2022/07/31 06:25:09;;;;;;;6.85;5.07;;;19.30;99.90;;;;;;5095426;28;20126;-84
2022/07/31 06:27:36;;;;;;;6.60;5.15;;;19.40;99.90;;;;;;5096532;28;20052;-83
2022/07/31 06:30:04;;;;;;;9.20;5.65;;;19.40;99.90;;;;;;5078080;28;20051;-83
2022/07/31 06:32:30;;;;;;;7.72;5.20;;;19.40;99.90;;;;;;5095471;28;20063;-84
2022/07/31 06:34:56;;;;;;;9.23;5.10;;;19.40;99.90;;;;;;5095157;28;20048;-83
2022/07/31 06:37:22;;;;;;;7.22;5.07;;;19.50;99.90;;;;;;5094942;28;20047;-83
2022/07/31 06:39:48;;;;;;;8.35;5.32;;;19.50;99.90;;;;;;5095515;28;20458;-83
2022/07/31 06:42:21;;;;;;;10.73;5.07;;;19.60;99.90;;;;;;5095144;28;20048;-83
2022/07/31 06:44:47;;;;;;;8.02;4.90;;;19.70;99.90;;;;;;5077965;28;20052;-84
2022/07/31 06:47:14;;;;;;;9.80;5.32;;;19.80;99.90;;;;;;5095605;28;20416;-83
2022/07/31 06:49:40;;;;;;;11.65;5.50;;;19.90;99.90;;;;;;5096802;28;20048;-84
2022/07/31 06:52:06;;;;;;;7.97;5.07;;;20.00;99.90;;;;;;5097711;28;20084;-83
2022/07/31 06:54:31;;;;;;;8.90;5.20;;;20.20;99.90;;;;;;5096062;28;20036;-84
2022/07/31 06:56:58;;;;;;;10.30;5.40;;;20.30;99.90;;;;;;5095204;28;20504;-83
2022/07/31 06:59:23;;;;;;;6.28;5.18;;;20.50;99.90;;;;;;5076935;28;20056;-83
2022/07/31 07:01:49;;;;;;;11.50;5.55;;;20.60;99.90;;;;;;5077679;28;20100;-83
2022/07/31 07:04:14;;;;;;;5.90;5.22;;;20.70;99.90;;;;;;5078452;28;20059;-83
2022/07/31 07:06:40;;;;;;;7.43;5.72;;;20.70;99.90;;;;;;5095479;28;20103;-84
2022/07/31 07:09:06;;;;;;;8.00;5.30;;;20.60;99.90;;;;;;5095427;28;20389;-83
2022/07/31 07:11:32;;;;;;;11.02;5.80;;;20.60;99.90;;;;;;5094502;28;20052;-83
2022/07/31 07:13:57;;;;;;;12.93;6.00;;;20.60;99.90;;;;;;5094139;28;20050;-82
2022/07/31 07:16:23;;;;;;;8.75;6.00;;;20.60;99.90;;;;;;5076089;28;20130;-83
2022/07/31 07:18:49;;;;;;;7.82;6.38;;;20.50;99.90;;;;;;5075534;28;20048;-84
2022/07/31 07:21:14;;;;;;;8.00;6.13;;;20.60;99.90;;;;;;5093651;28;20185;-84
2022/07/31 07:23:40;;;;;;;10.63;6.35;;;20.70;99.90;;;;;;5093908;28;20105;-84
2022/07/31 07:26:06;;;;;;;7.85;6.43;;;20.70;99.90;;;;;;5093777;28;20043;-83
2022/07/31 07:28:32;;;;;;;8.48;6.63;;;20.70;99.90;;;;;;5075948;28;20059;-82
2022/07/31 07:30:58;;;;;;;10.90;6.63;;;20.80;99.90;;;;;;5075932;28;20123;-83
2022/07/31 07:33:42;;;;;;;8.57;6.35;;;20.80;99.90;;;;;;5093301;28;20525;-84
2022/07/31 07:36:09;;;;;;;12.20;6.47;;;20.80;99.90;;;;;;5093349;28;20044;-83
2022/07/31 07:38:35;;;;;;;10.43;6.63;;;20.80;99.90;;;;;;5093743;28;20098;-83
2022/07/31 07:41:00;;;;;;;9.88;6.68;;;20.90;99.90;;;;;;5093899;28;20044;-83
2022/07/31 07:43:26;;;;;;;13.05;6.20;;;21.00;99.90;;;;;;5093967;28;20044;-83
2022/07/31 07:45:52;;;;;;;10.57;6.75;;;21.00;99.90;;;;;;5093225;28;20040;-83
2022/07/31 07:48:17;;;;;;;12.93;6.75;;;21.10;99.90;;;;;;5075342;28;20048;-82
2022/07/31 07:50:43;;;;;;;9.90;7.03;;;21.10;99.90;;;;;;5093238;28;20043;-83
2022/07/31 07:53:09;;;;;;;11.00;7.65;;;21.10;99.90;;;;;;5093611;28;20048;-83
2022/07/31 07:55:34;;;;;;;17.25;8.27;;;21.00;99.90;;;;;;5093606;28;20501;-83
2022/07/31 07:58:00;;;;;;;10.18;8.00;;;20.90;99.90;;;;;;5093183;28;20094;-83
2022/07/31 08:00:26;;;;;;;12.82;7.35;;;20.70;99.90;;;;;;5093292;28;20055;-83
2022/07/31 08:02:51;;;;;;;11.48;7.78;;;20.70;99.90;;;;;;5093518;28;20102;-84
2022/07/31 08:05:17;;;;;;;14.57;6.63;;;20.70;99.90;;;;;;5093662;28;20185;-83
2022/07/31 08:07:44;;;;;;;9.60;6.80;;;20.90;99.90;;;;;;5092876;28;20396;-91
2022/07/31 08:10:10;;;;;;;10.13;6.75;;;21.10;99.90;;;;;;5093735;28;20109;-83
2022/07/31 08:12:35;;;;;;;10.90;6.03;;;21.30;99.90;;;;;;5093199;28;20052;-84
2022/07/31 08:15:02;;;;;;;9.10;6.45;;;21.40;99.90;;;;;;5058193;28;20036;-83
2022/07/31 08:17:28;;;;;;;13.73;6.22;;;21.70;99.90;;;;;;5093286;28;20058;-83
2022/07/31 08:19:54;;;;;;;10.73;7.00;;;21.80;99.90;;;;;;5093271;28;20052;-84
2022/07/31 08:22:20;;;;;;;9.23;6.22;;;22.00;99.90;;;;;;5093322;28;20052;-85
2022/07/31 08:24:45;;;;;;;7.05;5.15;;;22.30;99.90;;;;;;5093944;28;20044;-83
2022/07/31 08:27:23;;;;;;;7.65;6.15;;;22.30;99.90;;;;;;5075469;28;20131;-83
2022/07/31 08:29:50;;;;;;;8.10;6.30;;;22.50;99.90;;;;;;5095526;28;20054;-83
2022/07/31 08:32:16;;;;;;;7.70;4.40;;;22.60;99.90;;;;;;5097532;28;20055;-84
2022/07/31 08:34:42;;;;;;;9.63;6.57;;;22.70;99.90;;;;;;5078889;28;20493;-83
2022/07/31 08:37:08;;;;;;;9.55;5.82;;;22.60;99.90;;;;;;5079073;28;20044;-83
2022/07/31 08:39:34;;;;;;;8.82;6.20;;;22.40;99.90;;;;;;5081251;28;20105;-83
2022/07/31 08:42:04;;;;;;;9.68;6.22;;;22.30;99.90;;;;;;5079391;28;20090;-83
2022/07/31 08:44:30;;;;;;;6.28;5.35;;;22.20;99.90;;;;;;5079026;28;20044;-83
2022/07/31 08:46:57;;;;;;;8.70;6.43;;;22.10;99.90;;;;;;5096936;28;20048;-83
2022/07/31 08:49:25;;;;;;;8.35;7.00;;;22.00;99.90;;;;;;5097463;28;20056;-83
2022/07/31 08:51:52;;;;;;;8.63;6.47;;;21.90;99.90;;;;;;5097661;28;20059;-82
2022/07/31 08:54:18;;;;;;;12.63;7.57;;;21.80;99.90;;;;;;5079187;28;20071;-84
2022/07/31 08:56:46;;;;;;;12.18;7.95;;;21.50;99.90;;;;;;5079365;28;20048;-84
2022/07/31 08:59:16;;;;;;;7.47;5.10;;;21.30;99.90;;;;;;5079226;28;20131;-84
2022/07/31 09:01:41;;;;;;;11.05;7.57;;;21.10;99.90;;;;;;5097084;28;20091;-84
2022/07/31 09:04:07;;;;;;;9.95;7.90;;;20.90;99.90;;;;;;5097602;28;20477;-83
2022/07/31 09:06:35;;;;;;;12.00;7.82;;;20.70;99.90;;;;;;5097599;28;20051;-84
2022/07/31 09:09:01;;;;;;;12.77;8.93;;;20.50;99.90;;;;;;5078725;28;20048;-84
2022/07/31 09:11:27;;;;;;;8.80;7.90;;;20.40;99.90;;;;;;5100465;28;20048;-85
2022/07/31 09:13:58;;;;;;;15.38;9.57;;;20.20;99.90;;;;;;5097466;28;20137;-84
2022/07/31 09:16:49;;;;;;;9.05;7.15;;;20.10;99.90;;;;;;5078251;28;20047;-85
2022/07/31 09:19:15;;;;;;;15.07;8.68;;;19.80;99.90;;;;;;5062082;28;20059;-85
2022/07/31 09:21:42;;;;;;;13.02;10.05;;;19.70;99.90;;;;;;5078159;28;20056;-86
2022/07/31 09:24:10;;;;;;;12.60;9.52;;;19.70;99.90;;;;;;5096452;28;20426;-86
2022/07/31 09:26:39;;;;;;;10.40;9.40;;;19.60;99.90;;;;;;5096918;28;20043;-85
2022/07/31 09:29:11;;;;;;;12.00;9.48;;;19.60;99.90;;;;;;5096488;28;20055;-85
2022/07/31 09:31:37;;;;;;;12.38;9.40;;;19.60;99.90;;;;;;5078022;28;20052;-85
2022/07/31 09:34:04;;;;;;;13.45;10.25;;;19.60;99.90;;;;;;5061710;28;20044;-86
2022/07/31 09:36:30;;;;;;;17.40;9.95;;;19.70;99.90;;;;;;5078037;28;20056;-84
2022/07/31 09:38:57;;;;;;;16.17;10.85;;;19.70;99.90;;;;;;5077939;28;20047;-84
2022/07/31 09:41:23;;;;;;;21.17;11.60;;;19.70;99.90;;;;;;5077074;28;20048;-84
2022/07/31 09:43:54;;;;;;;20.15;11.38;;;19.60;99.90;;;;;;5095460;28;20415;-84
2022/07/31 09:46:20;;;;;;;20.33;13.20;;;19.50;99.90;;;;;;5095076;28;20048;-84
2022/07/31 09:48:51;;;;;;;16.85;13.35;;;19.30;99.90;;;;;;5095537;28;20044;-85
2022/07/31 09:51:17;;;;;;;20.67;13.30;;;19.30;99.90;;;;;;5060908;28;20511;-84
2022/07/31 09:53:56;;;;;;;19.20;13.98;;;19.30;99.90;;;;;;5077526;28;22014;-89
2022/07/31 09:56:34;;;;;;;15.70;12.20;;;19.30;99.90;;;;;;5077426;28;20039;-85
2022/07/31 09:59:01;;;;;;;21.45;12.80;;;19.40;99.90;;;;;;5077252;28;20442;-85
2022/07/31 10:01:35;;;;;;;17.65;13.15;;;19.50;99.90;;;;;;5077822;28;20052;-85
2022/07/31 10:04:02;;;;;;;17.02;13.32;;;19.70;99.90;;;;;;5078063;28;20146;-85
2022/07/31 10:06:31;;;;;;;15.48;13.40;;;19.80;99.90;;;;;;5078320;28;20130;-84
2022/07/31 10:08:58;;;;;;;17.05;13.32;;;20.00;99.90;;;;;;5060642;28;20149;-85
2022/07/31 10:11:25;;;;;;;14.65;11.32;;;20.10;99.90;;;;;;5077311;28;20091;-83
2022/07/31 10:13:55;;;;;;;14.45;12.23;;;20.00;99.90;;;;;;5095296;28;20090;-85
2022/07/31 10:16:26;;;;;;;16.90;13.67;;;20.00;99.90;;;;;;5077012;28;20048;-84
2022/07/31 10:19:02;;;;;;;;;;;19.80;99.90;;;;;;5059682;28;20290;-84
2022/07/31 10:21:36;;;;;;;13.55;11.15;;;19.80;99.90;;;;;;5060342;28;19916;-84
2022/07/31 10:24:03;;;;;;;14.32;11.60;;;19.70;99.90;;;;;;5094333;28;20485;-84
2022/07/31 10:26:32;;;;;;;14.48;11.20;;;19.60;99.90;;;;;;5077146;28;20048;-84
2022/07/31 10:28:58;;;;;;;15.32;13.25;;;19.60;99.90;;;;;;5060219;28;20055;-84
2022/07/31 10:31:24;;;;;;;14.27;11.95;;;19.50;99.90;;;;;;5060050;28;20055;-82
2022/07/31 10:33:51;;;;;;;12.63;10.50;;;19.50;99.90;;;;;;5094534;28;20367;-83
2022/07/31 10:36:21;;;;;;;17.48;12.48;;;19.50;99.90;;;;;;5095535;28;20048;-84
2022/07/31 10:38:53;;;;;;;15.07;12.55;;;19.60;99.90;;;;;;5077498;28;20139;-86
2022/07/31 10:41:40;;;;;;;12.13;10.82;;;19.70;99.90;;;;;;5076891;28;20048;-84
2022/07/31 10:44:12;;;;;;;13.20;10.68;;;19.60;99.90;;;;;;5096899;28;20485;-81
2022/07/31 10:46:38;;;;;;;14.52;10.75;;;19.60;99.90;;;;;;5076702;28;20064;-88
2022/07/31 10:49:03;;;;;;;13.30;10.90;;;19.60;99.90;;;;;;5075666;28;20550;-83
2022/07/31 10:51:30;;;;;;;15.65;11.57;;;19.60;99.90;;;;;;5076176;28;20048;-84
2022/07/31 10:54:04;;;;;;;13.43;11.32;;;19.60;99.90;;;;;;5075242;28;20090;-83
2022/07/31 10:56:44;;;;;;;17.02;10.73;;;19.70;99.90;;;;;;5076251;28;20142;-83
2022/07/31 10:59:11;;;;;;;15.70;10.18;;;19.80;99.90;;;;;;5094166;28;20392;-83
2022/07/31 11:01:50;;;;;;;13.25;10.77;;;19.90;99.90;;;;;;5093951;28;20047;-83
2022/07/31 11:04:33;;;;;;;14.75;10.45;;;19.90;99.90;;;;;;5076051;28;20930;-82
2022/07/31 11:06:59;;;;;;;15.70;10.82;;;19.80;99.90;;;;;;5093878;28;20059;-82
2022/07/31 11:09:27;;;;;;;15.20;10.30;;;19.70;99.90;;;;;;5093966;28;20056;-82
2022/07/31 11:11:53;;;;;;;14.07;10.05;;;19.70;99.90;;;;;;5093604;28;20095;-83
2022/07/31 11:14:37;;;;;;;15.95;11.70;;;19.50;99.90;;;;;;5093483;28;20040;-83
2022/07/31 11:17:06;;;;;;;22.80;13.65;;;19.30;99.90;;;;;;5075538;28;20489;-82
2022/07/31 11:19:39;;;;;;;16.60;12.52;;;19.10;99.90;;;;;;5075520;28;20074;-81
2022/07/31 11:22:12;;;;;;;20.48;14.95;;;19.00;99.90;;;;;;5058898;28;20134;-83
2022/07/31 11:24:38;;;;;;;21.10;15.77;;;18.90;99.90;;;;;;5075568;28;20130;-82
2022/07/31 11:27:05;;;;;;;20.52;15.25;;;18.80;99.90;;;;;;5075360;28;20143;-83
2022/07/31 11:29:33;;;;;;;33.20;19.90;;;18.70;99.90;;;;;;5075058;28;20117;-80
2022/07/31 11:32:06;;;;;;;39.55;21.23;;;18.70;99.90;;;;;;5093276;28;20109;-83
2022/07/31 11:34:53;;;;;;;38.60;21.20;;;18.60;99.90;;;;;;5075215;28;20131;-82
2022/07/31 11:37:29;;;;;;;35.83;20.75;;;18.60;99.90;;;;;;5075111;28;20511;-83
2022/07/31 11:39:55;;;;;;;35.35;22.60;;;18.60;99.90;;;;;;5075503;28;20057;-84
2022/07/31 11:42:23;;;;;;;40.45;23.92;;;18.60;99.90;;;;;;5093316;28;20052;-83
2022/07/31 11:44:49;;;;;;;38.03;23.88;;;18.60;99.90;;;;;;5075396;28;20090;-82
2022/07/31 11:47:15;;;;;;;42.20;25.15;;;18.50;99.90;;;;;;5092996;28;20083;-88
2022/07/31 11:49:40;;;;;;;34.90;23.25;;;18.50;99.90;;;;;;5075323;28;20056;-79
2022/07/31 11:52:10;;;;;;;43.88;27.33;;;18.50;99.90;;;;;;5075196;28;20506;-82
2022/07/31 11:54:37;;;;;;;43.70;28.08;;;18.50;99.90;;;;;;5093164;28;20473;-84
2022/07/31 11:57:04;;;;;;;68.47;33.65;;;18.60;99.90;;;;;;5093389;28;20147;-82
2022/07/31 11:59:37;;;;;;;73.75;34.35;;;18.60;99.90;;;;;;5058381;28;20044;-84
2022/07/31 12:02:11;;;;;;;49.90;28.95;;;18.70;99.90;;;;;;5075387;28;20059;-81
2022/07/31 12:04:37;;;;;;;65.68;33.92;;;18.90;99.90;;;;;;5092550;28;20157;-82
2022/07/31 12:07:04;;;;;;;62.53;32.67;;;18.90;99.90;;;;;;5074905;28;20052;-82
2022/07/31 12:09:35;;;;;;;76.80;34.38;;;19.00;99.90;;;;;;5093094;28;20052;-83
2022/07/31 12:12:05;;;;;;;48.08;31.02;;;19.00;99.90;;;;;;5075680;28;20048;-83
2022/07/31 12:14:38;;;;;;;55.97;32.10;;;19.00;99.90;;;;;;5092702;28;20085;-83
2022/07/31 12:17:06;;;;;;;58.92;32.22;;;19.10;99.90;;;;;;5092911;28;20147;-82
2022/07/31 12:19:36;;;;;;;42.45;28.02;;;19.20;99.90;;;;;;5092765;28;20059;-83
2022/07/31 12:22:20;;;;;;;46.70;29.63;;;19.30;99.90;;;;;;5093043;28;20079;-83
2022/07/31 12:24:46;;;;;;;56.63;30.45;;;19.50;99.90;;;;;;5075213;28;20134;-83
2022/07/31 12:27:17;;;;;;;43.58;27.75;;;19.40;99.90;;;;;;5092871;28;20563;-83
2022/07/31 12:29:43;;;;;;;46.35;31.85;;;19.40;99.90;;;;;;5092836;28;20075;-90
2022/07/31 12:32:10;;;;;;;58.63;32.75;;;19.40;99.90;;;;;;5075012;28;20474;-82
2022/07/31 12:34:40;;;;;;;55.83;32.90;;;19.30;99.90;;;;;;5075158;28;20070;-83
2022/07/31 12:37:16;;;;;;;65.68;37.00;;;19.10;99.90;;;;;;5092935;28;20074;-83
2022/07/31 12:39:53;;;;;;;62.92;34.80;;;19.00;99.90;;;;;;5092788;28;20131;-83
2022/07/31 12:42:36;;;;;;;51.58;32.72;;;18.90;99.90;;;;;;5092838;28;20131;-84
2022/07/31 12:45:04;;;;;;;71.75;36.63;;;18.90;99.90;;;;;;5092914;28;20101;-82